sensor_id;sensor_type;location;lat;lon;timestamp;temperature;humidity
7234;DHT22;3658;47.992;10.158;2023-05-16T00:01:58;21.30;48.70
7234;DHT22;3658;47.992;10.158;2023-05-16T00:04:25;21.40;48.70
7234;DHT22;3658;47.992;10.158;2023-05-16T00:06:52;21.40;48.70
7234;DHT22;3658;47.992;10.158;2023-05-16T00:09:19;21.40;49.30
7234;DHT22;3658;47.992;10.158;2023-05-16T00:11:46;21.30;48.60
7234;DHT22;3658;47.992;10.158;2023-05-16T00:14:14;21.40;48.70
7234;DHT22;3658;47.992;10.158;2023-05-16T00:16:41;21.30;48.60
7234;DHT22;3658;47.992;10.158;2023-05-16T00:19:09;21.30;48.50
7234;DHT22;3658;47.992;10.158;2023-05-16T00:21:36;21.30;48.60
7234;DHT22;3658;47.992;10.158;2023-05-16T00:24:03;21.30;48.50
7234;DHT22;3658;47.992;10.158;2023-05-16T00:26:30;21.30;48.50
7234;DHT22;3658;47.992;10.158;2023-05-16T00:28:57;21.30;48.50
7234;DHT22;3658;47.992;10.158;2023-05-16T00:31:24;21.30;48.50
7234;DHT22;3658;47.992;10.158;2023-05-16T00:33:50;21.30;48.50
7234;DHT22;3658;47.992;10.158;2023-05-16T00:36:18;21.30;48.50
7234;DHT22;3658;47.992;10.158;2023-05-16T00:38:46;21.30;48.50
7234;DHT22;3658;47.992;10.158;2023-05-16T00:41:13;21.30;48.50
7234;DHT22;3658;47.992;10.158;2023-05-16T00:43:40;21.30;48.40
7234;DHT22;3658;47.992;10.158;2023-05-16T00:46:06;21.30;48.40
7234;DHT22;3658;47.992;10.158;2023-05-16T00:48:33;21.30;48.40
7234;DHT22;3658;47.992;10.158;2023-05-16T00:51:00;21.30;48.40
7234;DHT22;3658;47.992;10.158;2023-05-16T00:53:29;21.30;48.40
7234;DHT22;3658;47.992;10.158;2023-05-16T00:55:55;21.30;48.40
7234;DHT22;3658;47.992;10.158;2023-05-16T00:58:23;21.30;48.40
7234;DHT22;3658;47.992;10.158;2023-05-16T01:00:50;21.30;48.40
7234;DHT22;3658;47.992;10.158;2023-05-16T01:03:18;21.30;48.40
7234;DHT22;3658;47.992;10.158;2023-05-16T01:05:45;21.30;48.40
7234;DHT22;3658;47.992;10.158;2023-05-16T01:08:12;21.30;48.40
7234;DHT22;3658;47.992;10.158;2023-05-16T01:10:52;21.30;48.40
7234;DHT22;3658;47.992;10.158;2023-05-16T01:13:23;21.30;48.40
7234;DHT22;3658;47.992;10.158;2023-05-16T01:15:58;21.30;48.40
7234;DHT22;3658;47.992;10.158;2023-05-16T01:18:32;21.30;48.40
7234;DHT22;3658;47.992;10.158;2023-05-16T01:21:08;21.30;48.40
7234;DHT22;3658;47.992;10.158;2023-05-16T01:23:43;21.30;48.40
7234;DHT22;3658;47.992;10.158;2023-05-16T01:26:18;21.20;48.20
7234;DHT22;3658;47.992;10.158;2023-05-16T01:28:47;21.20;48.20
7234;DHT22;3658;47.992;10.158;2023-05-16T01:31:15;21.20;48.20
7234;DHT22;3658;47.992;10.158;2023-05-16T01:33:42;21.20;48.20
7234;DHT22;3658;47.992;10.158;2023-05-16T01:36:16;21.20;48.20
7234;DHT22;3658;47.992;10.158;2023-05-16T01:38:48;21.20;48.20
7234;DHT22;3658;47.992;10.158;2023-05-16T01:41:21;21.20;48.20
7234;DHT22;3658;47.992;10.158;2023-05-16T01:43:52;21.20;48.20
7234;DHT22;3658;47.992;10.158;2023-05-16T01:46:25;21.20;48.20
7234;DHT22;3658;47.992;10.158;2023-05-16T01:49:00;21.20;48.20
7234;DHT22;3658;47.992;10.158;2023-05-16T01:51:31;21.20;48.20
7234;DHT22;3658;47.992;10.158;2023-05-16T01:54:04;21.20;48.20
7234;DHT22;3658;47.992;10.158;2023-05-16T01:56:33;21.20;48.20
7234;DHT22;3658;47.992;10.158;2023-05-16T01:59:01;21.20;48.20
7234;DHT22;3658;47.992;10.158;2023-05-16T02:01:29;21.20;48.20
7234;DHT22;3658;47.992;10.158;2023-05-16T02:03:57;21.20;48.20
7234;DHT22;3658;47.992;10.158;2023-05-16T02:06:24;21.20;48.10
7234;DHT22;3658;47.992;10.158;2023-05-16T02:08:51;21.20;48.20
7234;DHT22;3658;47.992;10.158;2023-05-16T02:11:18;21.20;48.10
7234;DHT22;3658;47.992;10.158;2023-05-16T02:13:46;21.20;48.10
7234;DHT22;3658;47.992;10.158;2023-05-16T02:16:12;21.20;48.10
7234;DHT22;3658;47.992;10.158;2023-05-16T02:18:39;21.20;48.10
7234;DHT22;3658;47.992;10.158;2023-05-16T02:21:06;21.20;48.10
7234;DHT22;3658;47.992;10.158;2023-05-16T02:23:33;21.20;48.10
7234;DHT22;3658;47.992;10.158;2023-05-16T02:26:00;21.20;48.10
7234;DHT22;3658;47.992;10.158;2023-05-16T02:28:27;21.20;48.10
7234;DHT22;3658;47.992;10.158;2023-05-16T02:30:59;21.20;48.10
7234;DHT22;3658;47.992;10.158;2023-05-16T02:33:26;21.20;48.10
7234;DHT22;3658;47.992;10.158;2023-05-16T02:35:52;21.20;48.10
7234;DHT22;3658;47.992;10.158;2023-05-16T02:38:19;21.20;48.10
7234;DHT22;3658;47.992;10.158;2023-05-16T02:40:46;21.20;48.70
7234;DHT22;3658;47.992;10.158;2023-05-16T02:43:13;21.20;48.10
7234;DHT22;3658;47.992;10.158;2023-05-16T02:45:40;21.20;48.10
7234;DHT22;3658;47.992;10.158;2023-05-16T02:48:08;21.20;48.10
7234;DHT22;3658;47.992;10.158;2023-05-16T02:50:35;21.20;48.10
7234;DHT22;3658;47.992;10.158;2023-05-16T02:53:02;21.20;48.10
7234;DHT22;3658;47.992;10.158;2023-05-16T02:55:29;21.10;48.00
7234;DHT22;3658;47.992;10.158;2023-05-16T02:57:55;21.20;48.10
7234;DHT22;3658;47.992;10.158;2023-05-16T03:00:22;21.10;48.00
7234;DHT22;3658;47.992;10.158;2023-05-16T03:02:49;21.10;48.10
7234;DHT22;3658;47.992;10.158;2023-05-16T03:05:17;21.10;48.00
7234;DHT22;3658;47.992;10.158;2023-05-16T03:07:44;21.10;48.00
7234;DHT22;3658;47.992;10.158;2023-05-16T03:10:11;21.10;48.00
7234;DHT22;3658;47.992;10.158;2023-05-16T03:12:38;21.10;48.00
7234;DHT22;3658;47.992;10.158;2023-05-16T03:15:06;21.10;48.00
7234;DHT22;3658;47.992;10.158;2023-05-16T03:17:33;21.10;48.00
7234;DHT22;3658;47.992;10.158;2023-05-16T03:20:00;21.10;48.00
7234;DHT22;3658;47.992;10.158;2023-05-16T03:22:30;21.10;48.00
7234;DHT22;3658;47.992;10.158;2023-05-16T03:24:57;21.10;48.00
7234;DHT22;3658;47.992;10.158;2023-05-16T03:27:25;21.10;48.00
7234;DHT22;3658;47.992;10.158;2023-05-16T03:29:52;21.10;48.00
7234;DHT22;3658;47.992;10.158;2023-05-16T03:32:19;21.10;48.00
7234;DHT22;3658;47.992;10.158;2023-05-16T03:34:46;21.10;48.00
7234;DHT22;3658;47.992;10.158;2023-05-16T03:37:12;21.10;48.00
7234;DHT22;3658;47.992;10.158;2023-05-16T03:39:41;21.10;47.90
7234;DHT22;3658;47.992;10.158;2023-05-16T03:42:08;21.10;48.00
7234;DHT22;3658;47.992;10.158;2023-05-16T03:44:35;21.10;47.90
7234;DHT22;3658;47.992;10.158;2023-05-16T03:47:02;21.10;48.00
7234;DHT22;3658;47.992;10.158;2023-05-16T03:49:29;21.10;47.90
7234;DHT22;3658;47.992;10.158;2023-05-16T03:51:56;21.10;47.90
7234;DHT22;3658;47.992;10.158;2023-05-16T03:54:23;21.10;47.90
7234;DHT22;3658;47.992;10.158;2023-05-16T03:56:51;21.10;48.00
7234;DHT22;3658;47.992;10.158;2023-05-16T03:59:18;21.10;47.90
7234;DHT22;3658;47.992;10.158;2023-05-16T04:01:44;21.10;47.90
7234;DHT22;3658;47.992;10.158;2023-05-16T04:04:11;21.10;47.90
7234;DHT22;3658;47.992;10.158;2023-05-16T04:06:38;21.10;47.90
7234;DHT22;3658;47.992;10.158;2023-05-16T04:09:05;21.10;48.30
7234;DHT22;3658;47.992;10.158;2023-05-16T04:11:32;21.10;48.00
7234;DHT22;3658;47.992;10.158;2023-05-16T04:14:00;21.10;47.90
7234;DHT22;3658;47.992;10.158;2023-05-16T04:16:27;21.10;47.90
7234;DHT22;3658;47.992;10.158;2023-05-16T04:18:54;21.10;47.90
7234;DHT22;3658;47.992;10.158;2023-05-16T04:21:21;21.10;47.90
7234;DHT22;3658;47.992;10.158;2023-05-16T04:23:48;21.10;47.90
7234;DHT22;3658;47.992;10.158;2023-05-16T04:26:14;21.10;47.90
7234;DHT22;3658;47.992;10.158;2023-05-16T04:28:41;21.10;47.90
7234;DHT22;3658;47.992;10.158;2023-05-16T04:31:09;21.10;47.90
7234;DHT22;3658;47.992;10.158;2023-05-16T04:33:38;21.10;47.90
7234;DHT22;3658;47.992;10.158;2023-05-16T04:36:06;21.00;47.80
7234;DHT22;3658;47.992;10.158;2023-05-16T04:38:33;21.00;47.80
7234;DHT22;3658;47.992;10.158;2023-05-16T04:40:59;21.10;47.90
7234;DHT22;3658;47.992;10.158;2023-05-16T04:43:28;21.00;47.80
7234;DHT22;3658;47.992;10.158;2023-05-16T04:45:55;21.00;47.80
7234;DHT22;3658;47.992;10.158;2023-05-16T04:48:24;21.00;47.80
7234;DHT22;3658;47.992;10.158;2023-05-16T04:50:51;21.00;47.80
7234;DHT22;3658;47.992;10.158;2023-05-16T04:53:17;21.00;47.80
7234;DHT22;3658;47.992;10.158;2023-05-16T04:55:44;21.00;47.80
7234;DHT22;3658;47.992;10.158;2023-05-16T04:58:11;21.00;47.80
7234;DHT22;3658;47.992;10.158;2023-05-16T05:00:38;21.00;47.80
7234;DHT22;3658;47.992;10.158;2023-05-16T05:03:05;21.00;47.80
7234;DHT22;3658;47.992;10.158;2023-05-16T05:05:33;21.00;47.80
7234;DHT22;3658;47.992;10.158;2023-05-16T05:08:00;21.00;47.80
7234;DHT22;3658;47.992;10.158;2023-05-16T05:10:27;21.00;47.80
7234;DHT22;3658;47.992;10.158;2023-05-16T05:12:55;21.00;47.80
7234;DHT22;3658;47.992;10.158;2023-05-16T05:15:22;21.00;47.80
7234;DHT22;3658;47.992;10.158;2023-05-16T05:17:49;21.00;47.80
7234;DHT22;3658;47.992;10.158;2023-05-16T05:20:16;21.00;47.80
7234;DHT22;3658;47.992;10.158;2023-05-16T05:22:44;21.00;47.80
7234;DHT22;3658;47.992;10.158;2023-05-16T05:25:11;21.00;47.80
7234;DHT22;3658;47.992;10.158;2023-05-16T05:27:38;21.00;47.80
7234;DHT22;3658;47.992;10.158;2023-05-16T05:30:05;21.00;47.90
7234;DHT22;3658;47.992;10.158;2023-05-16T05:32:32;21.00;47.90
7234;DHT22;3658;47.992;10.158;2023-05-16T05:34:59;21.00;47.90
7234;DHT22;3658;47.992;10.158;2023-05-16T05:37:26;21.00;47.90
7234;DHT22;3658;47.992;10.158;2023-05-16T05:39:54;21.00;48.00
7234;DHT22;3658;47.992;10.158;2023-05-16T05:42:21;21.00;48.00
7234;DHT22;3658;47.992;10.158;2023-05-16T05:44:48;21.00;48.70
7234;DHT22;3658;47.992;10.158;2023-05-16T05:47:15;21.00;48.00
7234;DHT22;3658;47.992;10.158;2023-05-16T05:49:41;21.00;48.10
7234;DHT22;3658;47.992;10.158;2023-05-16T05:52:08;21.00;48.10
7234;DHT22;3658;47.992;10.158;2023-05-16T05:54:35;21.00;48.10
7234;DHT22;3658;47.992;10.158;2023-05-16T05:57:04;21.00;48.10
7234;DHT22;3658;47.992;10.158;2023-05-16T05:59:30;21.00;48.20
7234;DHT22;3658;47.992;10.158;2023-05-16T06:01:58;21.00;48.20
7234;DHT22;3658;47.992;10.158;2023-05-16T06:04:25;21.00;48.30
7234;DHT22;3658;47.992;10.158;2023-05-16T06:06:51;21.00;48.30
7234;DHT22;3658;47.992;10.158;2023-05-16T06:09:19;21.00;48.40
7234;DHT22;3658;47.992;10.158;2023-05-16T06:11:46;21.00;49.40
7234;DHT22;3658;47.992;10.158;2023-05-16T06:14:14;21.00;49.00
7234;DHT22;3658;47.992;10.158;2023-05-16T06:16:41;21.00;49.10
7234;DHT22;3658;47.992;10.158;2023-05-16T06:19:08;21.00;48.90
7234;DHT22;3658;47.992;10.158;2023-05-16T06:21:43;21.00;48.90
7234;DHT22;3658;47.992;10.158;2023-05-16T06:24:18;21.00;48.80
7234;DHT22;3658;47.992;10.158;2023-05-16T06:26:47;21.00;48.80
7234;DHT22;3658;47.992;10.158;2023-05-16T06:29:16;21.00;48.70
7234;DHT22;3658;47.992;10.158;2023-05-16T06:31:44;21.00;48.70
7234;DHT22;3658;47.992;10.158;2023-05-16T06:34:11;21.00;48.60
7234;DHT22;3658;47.992;10.158;2023-05-16T06:36:38;21.00;48.60
7234;DHT22;3658;47.992;10.158;2023-05-16T06:39:04;21.00;48.70
7234;DHT22;3658;47.992;10.158;2023-05-16T06:41:31;21.00;48.60
7234;DHT22;3658;47.992;10.158;2023-05-16T06:43:58;21.00;48.70
7234;DHT22;3658;47.992;10.158;2023-05-16T06:46:26;21.00;48.60
7234;DHT22;3658;47.992;10.158;2023-05-16T06:48:53;21.00;48.60
7234;DHT22;3658;47.992;10.158;2023-05-16T06:51:20;21.00;48.60
7234;DHT22;3658;47.992;10.158;2023-05-16T06:53:47;21.10;48.70
7234;DHT22;3658;47.992;10.158;2023-05-16T06:56:14;21.00;48.70
7234;DHT22;3658;47.992;10.158;2023-05-16T06:58:41;21.00;48.70
7234;DHT22;3658;47.992;10.158;2023-05-16T07:01:07;21.00;48.70
7234;DHT22;3658;47.992;10.158;2023-05-16T07:03:44;21.00;48.70
7234;DHT22;3658;47.992;10.158;2023-05-16T07:06:11;21.00;48.70
7234;DHT22;3658;47.992;10.158;2023-05-16T07:08:38;21.00;48.70
7234;DHT22;3658;47.992;10.158;2023-05-16T07:11:05;21.00;48.70
7234;DHT22;3658;47.992;10.158;2023-05-16T07:13:31;21.00;48.80
7234;DHT22;3658;47.992;10.158;2023-05-16T07:15:58;21.00;48.80
7234;DHT22;3658;47.992;10.158;2023-05-16T07:18:25;21.00;48.80
7234;DHT22;3658;47.992;10.158;2023-05-16T07:20:53;21.00;48.80
7234;DHT22;3658;47.992;10.158;2023-05-16T07:23:20;21.00;48.90
7234;DHT22;3658;47.992;10.158;2023-05-16T07:25:47;21.00;48.90
7234;DHT22;3658;47.992;10.158;2023-05-16T07:28:13;21.00;48.90
7234;DHT22;3658;47.992;10.158;2023-05-16T07:30:40;21.00;48.90
7234;DHT22;3658;47.992;10.158;2023-05-16T07:33:07;21.00;48.90
7234;DHT22;3658;47.992;10.158;2023-05-16T07:35:34;21.00;48.90
7234;DHT22;3658;47.992;10.158;2023-05-16T07:38:02;21.00;48.90
7234;DHT22;3658;47.992;10.158;2023-05-16T07:40:28;20.90;48.80
7234;DHT22;3658;47.992;10.158;2023-05-16T07:42:55;21.00;48.90
7234;DHT22;3658;47.992;10.158;2023-05-16T07:45:22;21.00;48.90
7234;DHT22;3658;47.992;10.158;2023-05-16T07:47:49;21.00;48.90
7234;DHT22;3658;47.992;10.158;2023-05-16T07:50:16;21.00;48.90
7234;DHT22;3658;47.992;10.158;2023-05-16T07:52:42;21.00;48.80
7234;DHT22;3658;47.992;10.158;2023-05-16T07:55:11;21.00;48.90
7234;DHT22;3658;47.992;10.158;2023-05-16T07:57:37;21.00;48.90
7234;DHT22;3658;47.992;10.158;2023-05-16T08:00:05;21.00;48.80
7234;DHT22;3658;47.992;10.158;2023-05-16T08:02:33;21.00;48.90
7234;DHT22;3658;47.992;10.158;2023-05-16T08:05:00;21.00;48.90
7234;DHT22;3658;47.992;10.158;2023-05-16T08:07:27;21.00;48.90
7234;DHT22;3658;47.992;10.158;2023-05-16T08:09:53;21.00;48.90
7234;DHT22;3658;47.992;10.158;2023-05-16T08:12:22;21.00;48.90
7234;DHT22;3658;47.992;10.158;2023-05-16T08:14:49;21.00;48.90
7234;DHT22;3658;47.992;10.158;2023-05-16T08:17:16;21.00;48.90
7234;DHT22;3658;47.992;10.158;2023-05-16T08:19:43;21.00;48.90
7234;DHT22;3658;47.992;10.158;2023-05-16T08:22:10;21.00;48.90
7234;DHT22;3658;47.992;10.158;2023-05-16T08:24:37;21.00;48.90
7234;DHT22;3658;47.992;10.158;2023-05-16T08:27:04;21.00;48.90
7234;DHT22;3658;47.992;10.158;2023-05-16T08:29:32;21.00;48.90
7234;DHT22;3658;47.992;10.158;2023-05-16T08:31:59;21.00;48.90
7234;DHT22;3658;47.992;10.158;2023-05-16T08:34:26;21.00;48.90
7234;DHT22;3658;47.992;10.158;2023-05-16T08:36:53;21.00;48.90
7234;DHT22;3658;47.992;10.158;2023-05-16T08:39:20;20.90;48.90
7234;DHT22;3658;47.992;10.158;2023-05-16T08:41:47;20.90;48.90
7234;DHT22;3658;47.992;10.158;2023-05-16T08:44:13;20.90;48.90
7234;DHT22;3658;47.992;10.158;2023-05-16T08:46:50;20.90;48.90
7234;DHT22;3658;47.992;10.158;2023-05-16T08:49:17;20.90;48.90
7234;DHT22;3658;47.992;10.158;2023-05-16T08:51:46;20.90;49.00
7234;DHT22;3658;47.992;10.158;2023-05-16T08:54:13;20.90;48.90
7234;DHT22;3658;47.992;10.158;2023-05-16T08:56:41;20.90;48.90
7234;DHT22;3658;47.992;10.158;2023-05-16T08:59:08;20.90;48.90
7234;DHT22;3658;47.992;10.158;2023-05-16T09:01:36;20.90;48.90
7234;DHT22;3658;47.992;10.158;2023-05-16T09:04:06;20.90;48.90
7234;DHT22;3658;47.992;10.158;2023-05-16T09:06:33;20.90;48.90
7234;DHT22;3658;47.992;10.158;2023-05-16T09:09:00;20.90;48.90
7234;DHT22;3658;47.992;10.158;2023-05-16T09:11:29;20.90;48.90
7234;DHT22;3658;47.992;10.158;2023-05-16T09:13:56;20.90;48.90
7234;DHT22;3658;47.992;10.158;2023-05-16T09:16:22;20.90;48.90
7234;DHT22;3658;47.992;10.158;2023-05-16T09:18:53;20.90;48.90
7234;DHT22;3658;47.992;10.158;2023-05-16T09:21:25;20.90;48.90
7234;DHT22;3658;47.992;10.158;2023-05-16T09:23:52;20.90;48.90
7234;DHT22;3658;47.992;10.158;2023-05-16T09:26:19;20.90;48.90
7234;DHT22;3658;47.992;10.158;2023-05-16T09:28:46;20.90;48.90
7234;DHT22;3658;47.992;10.158;2023-05-16T09:31:20;20.80;48.90
7234;DHT22;3658;47.992;10.158;2023-05-16T09:33:47;20.90;48.90
7234;DHT22;3658;47.992;10.158;2023-05-16T09:36:15;20.90;48.90
7234;DHT22;3658;47.992;10.158;2023-05-16T09:38:43;20.90;48.90
7234;DHT22;3658;47.992;10.158;2023-05-16T09:41:10;20.90;48.90
7234;DHT22;3658;47.992;10.158;2023-05-16T09:43:39;20.90;48.90
7234;DHT22;3658;47.992;10.158;2023-05-16T09:46:05;20.90;48.90
7234;DHT22;3658;47.992;10.158;2023-05-16T09:48:32;20.90;48.90
7234;DHT22;3658;47.992;10.158;2023-05-16T09:50:59;20.90;48.90
7234;DHT22;3658;47.992;10.158;2023-05-16T09:53:30;20.90;48.90
7234;DHT22;3658;47.992;10.158;2023-05-16T09:56:03;20.90;48.90
7234;DHT22;3658;47.992;10.158;2023-05-16T09:58:33;20.90;48.90
7234;DHT22;3658;47.992;10.158;2023-05-16T10:01:01;20.90;48.90
7234;DHT22;3658;47.992;10.158;2023-05-16T10:03:28;20.90;48.90
7234;DHT22;3658;47.992;10.158;2023-05-16T10:05:56;20.80;48.90
7234;DHT22;3658;47.992;10.158;2023-05-16T10:08:24;20.90;48.90
7234;DHT22;3658;47.992;10.158;2023-05-16T10:10:52;20.90;48.90
7234;DHT22;3658;47.992;10.158;2023-05-16T10:13:22;20.80;48.90
7234;DHT22;3658;47.992;10.158;2023-05-16T10:15:50;20.80;48.90
7234;DHT22;3658;47.992;10.158;2023-05-16T10:18:19;20.80;48.90
7234;DHT22;3658;47.992;10.158;2023-05-16T10:20:50;20.90;49.00
7234;DHT22;3658;47.992;10.158;2023-05-16T10:23:18;20.80;48.90
7234;DHT22;3658;47.992;10.158;2023-05-16T10:25:47;20.80;48.90
7234;DHT22;3658;47.992;10.158;2023-05-16T10:28:15;20.80;48.90
7234;DHT22;3658;47.992;10.158;2023-05-16T10:30:45;20.80;48.90
7234;DHT22;3658;47.992;10.158;2023-05-16T10:33:13;20.80;48.90
7234;DHT22;3658;47.992;10.158;2023-05-16T10:35:40;20.80;48.90
7234;DHT22;3658;47.992;10.158;2023-05-16T10:38:08;20.80;48.90
7234;DHT22;3658;47.992;10.158;2023-05-16T10:40:38;20.80;48.90
7234;DHT22;3658;47.992;10.158;2023-05-16T10:43:06;20.80;49.00
7234;DHT22;3658;47.992;10.158;2023-05-16T10:45:33;20.80;49.00
7234;DHT22;3658;47.992;10.158;2023-05-16T10:48:03;20.80;49.00
7234;DHT22;3658;47.992;10.158;2023-05-16T10:50:35;20.80;49.00
7234;DHT22;3658;47.992;10.158;2023-05-16T10:53:17;20.80;49.00
7234;DHT22;3658;47.992;10.158;2023-05-16T10:55:49;20.80;49.00
7234;DHT22;3658;47.992;10.158;2023-05-16T10:58:23;20.80;49.00
7234;DHT22;3658;47.992;10.158;2023-05-16T11:01:15;20.80;49.00
7234;DHT22;3658;47.992;10.158;2023-05-16T11:04:05;20.80;49.00
7234;DHT22;3658;47.992;10.158;2023-05-16T11:06:33;20.70;48.90
7234;DHT22;3658;47.992;10.158;2023-05-16T11:09:04;20.70;48.90
7234;DHT22;3658;47.992;10.158;2023-05-16T11:11:41;20.70;48.90
7234;DHT22;3658;47.992;10.158;2023-05-16T11:14:09;20.70;49.00
7234;DHT22;3658;47.992;10.158;2023-05-16T11:16:47;20.70;49.00
7234;DHT22;3658;47.992;10.158;2023-05-16T11:19:28;20.70;48.90
7234;DHT22;3658;47.992;10.158;2023-05-16T11:22:22;20.70;49.00
7234;DHT22;3658;47.992;10.158;2023-05-16T11:24:51;20.70;48.90
7234;DHT22;3658;47.992;10.158;2023-05-16T11:27:21;20.70;49.00
7234;DHT22;3658;47.992;10.158;2023-05-16T11:29:48;20.70;49.00
7234;DHT22;3658;47.992;10.158;2023-05-16T11:32:18;20.70;49.00
7234;DHT22;3658;47.992;10.158;2023-05-16T11:34:47;20.70;49.00
7234;DHT22;3658;47.992;10.158;2023-05-16T11:37:14;20.70;48.90
7234;DHT22;3658;47.992;10.158;2023-05-16T11:39:41;20.70;49.00
7234;DHT22;3658;47.992;10.158;2023-05-16T11:42:08;20.60;48.90
7234;DHT22;3658;47.992;10.158;2023-05-16T11:44:35;20.60;48.90
7234;DHT22;3658;47.992;10.158;2023-05-16T11:47:02;20.60;48.90
7234;DHT22;3658;47.992;10.158;2023-05-16T11:49:29;20.60;48.90
7234;DHT22;3658;47.992;10.158;2023-05-16T11:51:57;20.60;48.90
7234;DHT22;3658;47.992;10.158;2023-05-16T11:54:24;20.60;48.90
7234;DHT22;3658;47.992;10.158;2023-05-16T11:56:51;20.60;48.90
7234;DHT22;3658;47.992;10.158;2023-05-16T11:59:19;20.60;48.90
7234;DHT22;3658;47.992;10.158;2023-05-16T12:01:46;20.60;48.90
7234;DHT22;3658;47.992;10.158;2023-05-16T12:04:14;20.60;48.90
7234;DHT22;3658;47.992;10.158;2023-05-16T12:06:42;20.60;48.90
7234;DHT22;3658;47.992;10.158;2023-05-16T12:09:13;20.60;48.90
7234;DHT22;3658;47.992;10.158;2023-05-16T12:11:41;20.60;48.90
7234;DHT22;3658;47.992;10.158;2023-05-16T12:14:10;20.60;49.00
7234;DHT22;3658;47.992;10.158;2023-05-16T12:16:38;20.60;48.90
7234;DHT22;3658;47.992;10.158;2023-05-16T12:19:07;20.60;49.00
7234;DHT22;3658;47.992;10.158;2023-05-16T12:21:34;20.60;48.90
7234;DHT22;3658;47.992;10.158;2023-05-16T12:24:01;20.60;49.00
7234;DHT22;3658;47.992;10.158;2023-05-16T12:26:31;20.60;49.00
7234;DHT22;3658;47.992;10.158;2023-05-16T12:28:58;20.60;49.00
7234;DHT22;3658;47.992;10.158;2023-05-16T12:31:28;20.50;48.90
7234;DHT22;3658;47.992;10.158;2023-05-16T12:33:55;20.60;49.00
7234;DHT22;3658;47.992;10.158;2023-05-16T12:36:23;20.60;49.00
7234;DHT22;3658;47.992;10.158;2023-05-16T12:38:51;20.50;48.90
7234;DHT22;3658;47.992;10.158;2023-05-16T12:41:19;20.50;48.90
7234;DHT22;3658;47.992;10.158;2023-05-16T12:43:47;20.50;48.90
7234;DHT22;3658;47.992;10.158;2023-05-16T12:46:15;20.50;48.90
7234;DHT22;3658;47.992;10.158;2023-05-16T12:48:41;20.50;48.90
7234;DHT22;3658;47.992;10.158;2023-05-16T12:51:12;20.50;49.00
7234;DHT22;3658;47.992;10.158;2023-05-16T12:53:41;20.50;48.90
7234;DHT22;3658;47.992;10.158;2023-05-16T12:56:08;20.50;48.90
7234;DHT22;3658;47.992;10.158;2023-05-16T12:58:35;20.50;48.90
7234;DHT22;3658;47.992;10.158;2023-05-16T13:01:04;20.50;48.90
7234;DHT22;3658;47.992;10.158;2023-05-16T13:03:31;20.50;48.90
7234;DHT22;3658;47.992;10.158;2023-05-16T13:05:58;20.50;49.00
7234;DHT22;3658;47.992;10.158;2023-05-16T13:08:25;20.50;49.00
7234;DHT22;3658;47.992;10.158;2023-05-16T13:10:52;20.50;49.00
7234;DHT22;3658;47.992;10.158;2023-05-16T13:13:19;20.50;49.00
7234;DHT22;3658;47.992;10.158;2023-05-16T13:15:45;20.50;48.90
7234;DHT22;3658;47.992;10.158;2023-05-16T13:18:14;20.50;49.10
7234;DHT22;3658;47.992;10.158;2023-05-16T13:20:40;20.50;49.00
7234;DHT22;3658;47.992;10.158;2023-05-16T13:23:08;20.50;49.00
7234;DHT22;3658;47.992;10.158;2023-05-16T13:25:34;20.50;49.00
7234;DHT22;3658;47.992;10.158;2023-05-16T13:28:01;20.40;48.90
7234;DHT22;3658;47.992;10.158;2023-05-16T13:30:29;20.40;48.90
7234;DHT22;3658;47.992;10.158;2023-05-16T13:32:56;20.40;48.90
7234;DHT22;3658;47.992;10.158;2023-05-16T13:35:24;20.40;48.90
7234;DHT22;3658;47.992;10.158;2023-05-16T13:37:51;20.40;48.90
7234;DHT22;3658;47.992;10.158;2023-05-16T13:40:18;20.40;49.00
7234;DHT22;3658;47.992;10.158;2023-05-16T13:42:45;20.40;49.00
7234;DHT22;3658;47.992;10.158;2023-05-16T13:45:11;20.40;49.00
7234;DHT22;3658;47.992;10.158;2023-05-16T13:47:38;20.40;48.90
7234;DHT22;3658;47.992;10.158;2023-05-16T13:50:07;20.30;48.90
7234;DHT22;3658;47.992;10.158;2023-05-16T13:52:36;20.40;49.00
7234;DHT22;3658;47.992;10.158;2023-05-16T13:55:04;20.40;49.00
7234;DHT22;3658;47.992;10.158;2023-05-16T13:57:32;20.40;49.00
7234;DHT22;3658;47.992;10.158;2023-05-16T13:59:59;20.40;49.00
7234;DHT22;3658;47.992;10.158;2023-05-16T14:02:26;20.40;49.10
7234;DHT22;3658;47.992;10.158;2023-05-16T14:04:52;20.40;49.00
7234;DHT22;3658;47.992;10.158;2023-05-16T14:07:19;20.40;49.10
7234;DHT22;3658;47.992;10.158;2023-05-16T14:09:47;20.40;49.10
7234;DHT22;3658;47.992;10.158;2023-05-16T14:12:14;20.40;49.10
7234;DHT22;3658;47.992;10.158;2023-05-16T14:14:41;20.40;49.10
7234;DHT22;3658;47.992;10.158;2023-05-16T14:17:07;20.40;49.10
7234;DHT22;3658;47.992;10.158;2023-05-16T14:19:34;20.40;49.10
7234;DHT22;3658;47.992;10.158;2023-05-16T14:22:01;20.30;49.00
7234;DHT22;3658;47.992;10.158;2023-05-16T14:24:28;20.30;49.00
7234;DHT22;3658;47.992;10.158;2023-05-16T14:26:56;20.30;49.00
7234;DHT22;3658;47.992;10.158;2023-05-16T14:29:23;20.40;49.10
7234;DHT22;3658;47.992;10.158;2023-05-16T14:31:50;20.30;49.00
7234;DHT22;3658;47.992;10.158;2023-05-16T14:34:17;20.30;49.00
7234;DHT22;3658;47.992;10.158;2023-05-16T14:36:44;20.30;49.00
7234;DHT22;3658;47.992;10.158;2023-05-16T14:39:10;20.30;49.00
7234;DHT22;3658;47.992;10.158;2023-05-16T14:41:38;20.30;49.00
7234;DHT22;3658;47.992;10.158;2023-05-16T14:44:06;20.40;49.20
7234;DHT22;3658;47.992;10.158;2023-05-16T14:46:34;20.30;49.00
7234;DHT22;3658;47.992;10.158;2023-05-16T14:49:00;20.30;49.10
7234;DHT22;3658;47.992;10.158;2023-05-16T14:51:27;20.30;49.10
7234;DHT22;3658;47.992;10.158;2023-05-16T14:53:56;20.30;49.80
7234;DHT22;3658;47.992;10.158;2023-05-16T14:56:22;20.30;49.80
7234;DHT22;3658;47.992;10.158;2023-05-16T14:58:50;20.30;49.20
7234;DHT22;3658;47.992;10.158;2023-05-16T15:01:18;20.30;49.10
7234;DHT22;3658;47.992;10.158;2023-05-16T15:03:45;20.30;49.10
7234;DHT22;3658;47.992;10.158;2023-05-16T15:06:12;20.30;49.10
7234;DHT22;3658;47.992;10.158;2023-05-16T15:08:39;20.30;49.10
7234;DHT22;3658;47.992;10.158;2023-05-16T15:11:06;20.30;49.10
7234;DHT22;3658;47.992;10.158;2023-05-16T15:13:32;20.30;49.20
7234;DHT22;3658;47.992;10.158;2023-05-16T15:15:59;20.30;49.30
7234;DHT22;3658;47.992;10.158;2023-05-16T15:18:27;20.30;49.20
7234;DHT22;3658;47.992;10.158;2023-05-16T15:20:54;20.30;49.20
7234;DHT22;3658;47.992;10.158;2023-05-16T15:23:21;20.30;49.20
7234;DHT22;3658;47.992;10.158;2023-05-16T15:25:47;20.30;49.20
7234;DHT22;3658;47.992;10.158;2023-05-16T15:28:16;20.30;49.20
7234;DHT22;3658;47.992;10.158;2023-05-16T15:30:43;20.30;49.20
7234;DHT22;3658;47.992;10.158;2023-05-16T15:33:10;20.30;49.30
7234;DHT22;3658;47.992;10.158;2023-05-16T15:35:39;20.30;49.20
7234;DHT22;3658;47.992;10.158;2023-05-16T15:38:06;20.30;49.20
7234;DHT22;3658;47.992;10.158;2023-05-16T15:40:33;20.30;49.20
7234;DHT22;3658;47.992;10.158;2023-05-16T15:43:00;20.30;49.30
7234;DHT22;3658;47.992;10.158;2023-05-16T15:45:28;20.30;49.30
7234;DHT22;3658;47.992;10.158;2023-05-16T15:47:55;20.30;49.20
7234;DHT22;3658;47.992;10.158;2023-05-16T15:50:21;20.30;49.20